sensor_id;sensor_type;location;lat;lon;timestamp;temperature;humidity
46732;DHT22;32477;51.474;5.696;2024-02-26T00:00:04;6.60;99.90
46732;DHT22;32477;51.474;5.696;2024-02-26T00:02:30;6.60;99.90
46732;DHT22;32477;51.474;5.696;2024-02-26T00:04:57;6.60;99.90
46732;DHT22;32477;51.474;5.696;2024-02-26T00:07:22;6.60;99.90
46732;DHT22;32477;51.474;5.696;2024-02-26T00:09:48;6.60;99.90
46732;DHT22;32477;51.474;5.696;2024-02-26T00:12:14;6.60;99.90
46732;DHT22;32477;51.474;5.696;2024-02-26T00:14:39;6.60;99.90
46732;DHT22;32477;51.474;5.696;2024-02-26T00:17:06;6.50;99.90
46732;DHT22;32477;51.474;5.696;2024-02-26T00:19:32;6.50;99.90
46732;DHT22;32477;51.474;5.696;2024-02-26T00:21:57;6.60;99.90
46732;DHT22;32477;51.474;5.696;2024-02-26T00:24:23;6.60;99.90
46732;DHT22;32477;51.474;5.696;2024-02-26T00:26:48;6.60;99.90
46732;DHT22;32477;51.474;5.696;2024-02-26T00:29:18;6.60;99.90
46732;DHT22;32477;51.474;5.696;2024-02-26T00:31:44;6.50;99.90
46732;DHT22;32477;51.474;5.696;2024-02-26T00:34:10;6.50;99.90
46732;DHT22;32477;51.474;5.696;2024-02-26T00:36:35;6.40;99.90
46732;DHT22;32477;51.474;5.696;2024-02-26T00:39:01;6.50;99.90
46732;DHT22;32477;51.474;5.696;2024-02-26T00:41:29;6.50;99.90
46732;DHT22;32477;51.474;5.696;2024-02-26T00:43:54;6.50;99.90
46732;DHT22;32477;51.474;5.696;2024-02-26T00:46:20;6.50;99.90
46732;DHT22;32477;51.474;5.696;2024-02-26T00:48:45;6.50;99.90
46732;DHT22;32477;51.474;5.696;2024-02-26T00:51:11;6.50;99.90
46732;DHT22;32477;51.474;5.696;2024-02-26T00:53:37;6.60;99.90
46732;DHT22;32477;51.474;5.696;2024-02-26T00:56:02;6.60;99.90
46732;DHT22;32477;51.474;5.696;2024-02-26T00:58:28;6.60;99.90
46732;DHT22;32477;51.474;5.696;2024-02-26T01:00:54;6.60;99.90
46732;DHT22;32477;51.474;5.696;2024-02-26T01:03:20;6.50;99.90
46732;DHT22;32477;51.474;5.696;2024-02-26T01:05:45;6.50;99.90
46732;DHT22;32477;51.474;5.696;2024-02-26T01:08:11;6.50;99.90
46732;DHT22;32477;51.474;5.696;2024-02-26T01:10:37;6.40;99.90
46732;DHT22;32477;51.474;5.696;2024-02-26T01:13:02;6.40;99.90
46732;DHT22;32477;51.474;5.696;2024-02-26T01:15:28;6.30;99.90
46732;DHT22;32477;51.474;5.696;2024-02-26T01:17:54;6.30;99.90
46732;DHT22;32477;51.474;5.696;2024-02-26T01:20:20;6.20;99.90
46732;DHT22;32477;51.474;5.696;2024-02-26T01:22:46;6.20;99.90
46732;DHT22;32477;51.474;5.696;2024-02-26T01:25:12;6.20;99.90
46732;DHT22;32477;51.474;5.696;2024-02-26T01:27:38;6.10;99.90
46732;DHT22;32477;51.474;5.696;2024-02-26T01:30:05;6.10;99.90
46732;DHT22;32477;51.474;5.696;2024-02-26T01:32:31;6.10;99.90
46732;DHT22;32477;51.474;5.696;2024-02-26T01:34:57;6.00;99.90
46732;DHT22;32477;51.474;5.696;2024-02-26T01:37:22;6.00;99.90
46732;DHT22;32477;51.474;5.696;2024-02-26T01:39:48;6.00;99.90
46732;DHT22;32477;51.474;5.696;2024-02-26T01:42:14;6.00;99.90
46732;DHT22;32477;51.474;5.696;2024-02-26T01:44:39;6.00;99.90
46732;DHT22;32477;51.474;5.696;2024-02-26T01:47:11;6.00;99.90
46732;DHT22;32477;51.474;5.696;2024-02-26T01:49:37;6.00;99.90
46732;DHT22;32477;51.474;5.696;2024-02-26T01:52:05;6.00;99.90
46732;DHT22;32477;51.474;5.696;2024-02-26T01:54:34;6.00;99.90
46732;DHT22;32477;51.474;5.696;2024-02-26T01:57:00;6.00;99.90
46732;DHT22;32477;51.474;5.696;2024-02-26T01:59:26;5.90;99.90
46732;DHT22;32477;51.474;5.696;2024-02-26T02:01:55;5.90;99.90
46732;DHT22;32477;51.474;5.696;2024-02-26T02:04:24;5.90;99.90
46732;DHT22;32477;51.474;5.696;2024-02-26T02:06:50;5.90;99.90
46732;DHT22;32477;51.474;5.696;2024-02-26T02:09:16;5.90;99.90
46732;DHT22;32477;51.474;5.696;2024-02-26T02:11:42;5.90;99.90
46732;DHT22;32477;51.474;5.696;2024-02-26T02:14:07;5.90;99.90
46732;DHT22;32477;51.474;5.696;2024-02-26T02:16:33;5.80;99.90
46732;DHT22;32477;51.474;5.696;2024-02-26T02:18:59;5.80;99.90
46732;DHT22;32477;51.474;5.696;2024-02-26T02:21:25;5.80;99.90
46732;DHT22;32477;51.474;5.696;2024-02-26T02:23:50;5.70;99.90
46732;DHT22;32477;51.474;5.696;2024-02-26T02:26:16;5.70;99.90
46732;DHT22;32477;51.474;5.696;2024-02-26T02:28:42;5.70;99.90
46732;DHT22;32477;51.474;5.696;2024-02-26T02:31:08;5.70;99.90
46732;DHT22;32477;51.474;5.696;2024-02-26T02:33:34;5.70;99.90
46732;DHT22;32477;51.474;5.696;2024-02-26T02:36:00;5.60;99.90
46732;DHT22;32477;51.474;5.696;2024-02-26T02:38:26;5.60;99.90
46732;DHT22;32477;51.474;5.696;2024-02-26T02:40:55;5.60;99.90
46732;DHT22;32477;51.474;5.696;2024-02-26T02:43:20;5.60;99.90
46732;DHT22;32477;51.474;5.696;2024-02-26T02:45:46;5.60;99.90
46732;DHT22;32477;51.474;5.696;2024-02-26T02:48:11;5.60;99.90
46732;DHT22;32477;51.474;5.696;2024-02-26T02:50:37;5.60;99.90
46732;DHT22;32477;51.474;5.696;2024-02-26T02:53:03;5.50;99.90
46732;DHT22;32477;51.474;5.696;2024-02-26T02:55:29;5.50;99.90
46732;DHT22;32477;51.474;5.696;2024-02-26T02:57:54;5.50;99.90
46732;DHT22;32477;51.474;5.696;2024-02-26T03:00:20;5.50;99.90
46732;DHT22;32477;51.474;5.696;2024-02-26T03:02:48;5.50;99.90
46732;DHT22;32477;51.474;5.696;2024-02-26T03:05:14;5.50;99.90
46732;DHT22;32477;51.474;5.696;2024-02-26T03:07:39;5.50;99.90
46732;DHT22;32477;51.474;5.696;2024-02-26T03:10:05;5.50;99.90
46732;DHT22;32477;51.474;5.696;2024-02-26T03:12:31;5.50;99.90
46732;DHT22;32477;51.474;5.696;2024-02-26T03:14:57;5.40;99.90
46732;DHT22;32477;51.474;5.696;2024-02-26T03:17:22;5.40;99.90
46732;DHT22;32477;51.474;5.696;2024-02-26T03:19:49;5.40;99.90
46732;DHT22;32477;51.474;5.696;2024-02-26T03:22:19;5.40;99.90
46732;DHT22;32477;51.474;5.696;2024-02-26T03:24:45;5.40;99.90
46732;DHT22;32477;51.474;5.696;2024-02-26T03:27:10;5.40;99.90
46732;DHT22;32477;51.474;5.696;2024-02-26T03:29:37;5.40;99.90
46732;DHT22;32477;51.474;5.696;2024-02-26T03:32:03;5.40;99.90
46732;DHT22;32477;51.474;5.696;2024-02-26T03:34:29;5.40;99.90
46732;DHT22;32477;51.474;5.696;2024-02-26T03:36:56;5.40;99.90
46732;DHT22;32477;51.474;5.696;2024-02-26T03:39:22;5.40;99.90
46732;DHT22;32477;51.474;5.696;2024-02-26T03:41:48;5.40;99.90
46732;DHT22;32477;51.474;5.696;2024-02-26T03:44:14;5.40;99.90
46732;DHT22;32477;51.474;5.696;2024-02-26T03:46:40;5.40;99.90
46732;DHT22;32477;51.474;5.696;2024-02-26T03:49:08;5.40;99.90
46732;DHT22;32477;51.474;5.696;2024-02-26T03:51:33;5.40;99.90
46732;DHT22;32477;51.474;5.696;2024-02-26T03:53:59;5.30;99.90
46732;DHT22;32477;51.474;5.696;2024-02-26T03:56:26;5.30;99.90
46732;DHT22;32477;51.474;5.696;2024-02-26T03:58:52;5.30;99.90
46732;DHT22;32477;51.474;5.696;2024-02-26T04:01:18;5.30;99.90
46732;DHT22;32477;51.474;5.696;2024-02-26T04:03:43;5.30;99.90
46732;DHT22;32477;51.474;5.696;2024-02-26T04:06:10;5.30;99.90
46732;DHT22;32477;51.474;5.696;2024-02-26T04:08:46;5.30;99.90
46732;DHT22;32477;51.474;5.696;2024-02-26T04:11:12;5.30;99.90
46732;DHT22;32477;51.474;5.696;2024-02-26T04:13:38;5.30;99.90
46732;DHT22;32477;51.474;5.696;2024-02-26T04:16:07;5.30;99.90
46732;DHT22;32477;51.474;5.696;2024-02-26T04:18:33;5.30;99.90
46732;DHT22;32477;51.474;5.696;2024-02-26T04:20:58;5.30;99.90
46732;DHT22;32477;51.474;5.696;2024-02-26T04:23:24;5.30;99.90
46732;DHT22;32477;51.474;5.696;2024-02-26T04:25:50;5.30;99.90
46732;DHT22;32477;51.474;5.696;2024-02-26T04:28:18;5.30;99.90
46732;DHT22;32477;51.474;5.696;2024-02-26T04:30:46;5.30;99.90
46732;DHT22;32477;51.474;5.696;2024-02-26T04:33:12;5.20;99.90
46732;DHT22;32477;51.474;5.696;2024-02-26T04:35:38;5.20;99.90
46732;DHT22;32477;51.474;5.696;2024-02-26T04:38:03;5.20;99.90
46732;DHT22;32477;51.474;5.696;2024-02-26T04:40:29;5.20;99.90
46732;DHT22;32477;51.474;5.696;2024-02-26T04:42:54;5.20;99.90
46732;DHT22;32477;51.474;5.696;2024-02-26T04:45:20;5.20;99.90
46732;DHT22;32477;51.474;5.696;2024-02-26T04:47:46;5.20;99.90
46732;DHT22;32477;51.474;5.696;2024-02-26T04:50:12;5.20;99.90
46732;DHT22;32477;51.474;5.696;2024-02-26T04:52:37;5.20;99.90
46732;DHT22;32477;51.474;5.696;2024-02-26T04:55:03;5.20;99.90
46732;DHT22;32477;51.474;5.696;2024-02-26T04:57:29;5.20;99.90
46732;DHT22;32477;51.474;5.696;2024-02-26T04:59:55;5.20;99.90
46732;DHT22;32477;51.474;5.696;2024-02-26T05:02:20;5.20;99.90
46732;DHT22;32477;51.474;5.696;2024-02-26T05:04:46;5.20;99.90
46732;DHT22;32477;51.474;5.696;2024-02-26T05:07:12;5.20;99.90
46732;DHT22;32477;51.474;5.696;2024-02-26T05:09:37;5.20;99.90
46732;DHT22;32477;51.474;5.696;2024-02-26T05:12:03;5.20;99.90
46732;DHT22;32477;51.474;5.696;2024-02-26T05:14:29;5.20;99.90
46732;DHT22;32477;51.474;5.696;2024-02-26T05:16:55;5.20;99.90
46732;DHT22;32477;51.474;5.696;2024-02-26T05:19:21;5.20;99.90
46732;DHT22;32477;51.474;5.696;2024-02-26T05:21:47;5.20;99.90
46732;DHT22;32477;51.474;5.696;2024-02-26T05:24:14;5.20;99.90
46732;DHT22;32477;51.474;5.696;2024-02-26T05:26:41;5.20;99.90
46732;DHT22;32477;51.474;5.696;2024-02-26T05:29:06;5.20;99.90
46732;DHT22;32477;51.474;5.696;2024-02-26T05:31:32;5.20;99.90
46732;DHT22;32477;51.474;5.696;2024-02-26T05:33:57;5.20;99.90
46732;DHT22;32477;51.474;5.696;2024-02-26T05:36:23;5.30;99.90
46732;DHT22;32477;51.474;5.696;2024-02-26T05:38:49;5.20;99.90
46732;DHT22;32477;51.474;5.696;2024-02-26T05:41:15;5.30;99.90
46732;DHT22;32477;51.474;5.696;2024-02-26T05:43:42;5.30;99.90
46732;DHT22;32477;51.474;5.696;2024-02-26T05:46:07;5.20;99.90
46732;DHT22;32477;51.474;5.696;2024-02-26T05:48:33;5.20;99.90
46732;DHT22;32477;51.474;5.696;2024-02-26T05:50:59;5.30;99.90
46732;DHT22;32477;51.474;5.696;2024-02-26T05:53:25;5.20;99.90
46732;DHT22;32477;51.474;5.696;2024-02-26T05:55:50;5.30;99.90
46732;DHT22;32477;51.474;5.696;2024-02-26T05:58:16;5.30;99.90
46732;DHT22;32477;51.474;5.696;2024-02-26T06:00:41;5.30;99.90
46732;DHT22;32477;51.474;5.696;2024-02-26T06:03:07;5.30;99.90
46732;DHT22;32477;51.474;5.696;2024-02-26T06:05:33;5.30;99.90
46732;DHT22;32477;51.474;5.696;2024-02-26T06:07:58;5.30;99.90
46732;DHT22;32477;51.474;5.696;2024-02-26T06:10:24;5.30;99.90
46732;DHT22;32477;51.474;5.696;2024-02-26T06:12:49;5.30;99.90
46732;DHT22;32477;51.474;5.696;2024-02-26T06:15:15;5.20;99.90
46732;DHT22;32477;51.474;5.696;2024-02-26T06:17:41;5.20;99.90
46732;DHT22;32477;51.474;5.696;2024-02-26T06:20:07;5.20;99.90
46732;DHT22;32477;51.474;5.696;2024-02-26T06:22:37;5.20;99.90
46732;DHT22;32477;51.474;5.696;2024-02-26T06:25:03;5.20;99.90
46732;DHT22;32477;51.474;5.696;2024-02-26T06:27:28;5.20;99.90
46732;DHT22;32477;51.474;5.696;2024-02-26T06:29:54;5.20;99.90
46732;DHT22;32477;51.474;5.696;2024-02-26T06:32:19;5.20;99.90
46732;DHT22;32477;51.474;5.696;2024-02-26T06:34:45;5.20;99.90
46732;DHT22;32477;51.474;5.696;2024-02-26T06:37:10;5.20;99.90
46732;DHT22;32477;51.474;5.696;2024-02-26T06:39:36;5.20;99.90
46732;DHT22;32477;51.474;5.696;2024-02-26T06:42:03;5.20;99.90
46732;DHT22;32477;51.474;5.696;2024-02-26T06:44:29;5.20;99.90
46732;DHT22;32477;51.474;5.696;2024-02-26T06:46:58;5.20;99.90
46732;DHT22;32477;51.474;5.696;2024-02-26T06:49:24;5.20;99.90
46732;DHT22;32477;51.474;5.696;2024-02-26T06:51:50;5.10;99.90
46732;DHT22;32477;51.474;5.696;2024-02-26T06:54:15;5.10;99.90
46732;DHT22;32477;51.474;5.696;2024-02-26T06:56:41;5.10;99.90
46732;DHT22;32477;51.474;5.696;2024-02-26T06:59:06;5.10;99.90
46732;DHT22;32477;51.474;5.696;2024-02-26T07:01:32;5.10;99.90
46732;DHT22;32477;51.474;5.696;2024-02-26T07:03:58;5.10;99.90
46732;DHT22;32477;51.474;5.696;2024-02-26T07:06:23;5.10;99.90
46732;DHT22;32477;51.474;5.696;2024-02-26T07:08:49;5.10;99.90
46732;DHT22;32477;51.474;5.696;2024-02-26T07:11:14;5.10;99.90
46732;DHT22;32477;51.474;5.696;2024-02-26T07:13:40;5.00;99.90
46732;DHT22;32477;51.474;5.696;2024-02-26T07:16:06;5.00;99.90
46732;DHT22;32477;51.474;5.696;2024-02-26T07:18:31;5.10;99.90
46732;DHT22;32477;51.474;5.696;2024-02-26T07:20:57;5.00;99.90
46732;DHT22;32477;51.474;5.696;2024-02-26T07:23:22;5.00;99.90
46732;DHT22;32477;51.474;5.696;2024-02-26T07:25:48;5.00;99.90
46732;DHT22;32477;51.474;5.696;2024-02-26T07:28:15;5.00;99.90
46732;DHT22;32477;51.474;5.696;2024-02-26T07:30:41;5.00;99.90
46732;DHT22;32477;51.474;5.696;2024-02-26T07:33:07;5.00;99.90
46732;DHT22;32477;51.474;5.696;2024-02-26T07:35:32;5.00;99.90
46732;DHT22;32477;51.474;5.696;2024-02-26T07:37:59;5.00;99.90
46732;DHT22;32477;51.474;5.696;2024-02-26T07:40:24;5.00;99.90
46732;DHT22;32477;51.474;5.696;2024-02-26T07:42:50;5.00;99.90
46732;DHT22;32477;51.474;5.696;2024-02-26T07:45:15;5.00;99.90
46732;DHT22;32477;51.474;5.696;2024-02-26T07:47:43;5.00;99.90
46732;DHT22;32477;51.474;5.696;2024-02-26T07:50:09;5.00;99.90
46732;DHT22;32477;51.474;5.696;2024-02-26T07:52:34;5.00;99.90
46732;DHT22;32477;51.474;5.696;2024-02-26T07:55:00;5.00;99.90
46732;DHT22;32477;51.474;5.696;2024-02-26T07:57:25;5.00;99.90
46732;DHT22;32477;51.474;5.696;2024-02-26T07:59:51;5.10;99.90
46732;DHT22;32477;51.474;5.696;2024-02-26T08:02:18;5.10;99.90
46732;DHT22;32477;51.474;5.696;2024-02-26T08:04:43;5.10;99.90
46732;DHT22;32477;51.474;5.696;2024-02-26T08:07:09;5.10;99.90
46732;DHT22;32477;51.474;5.696;2024-02-26T08:09:34;5.10;99.90
46732;DHT22;32477;51.474;5.696;2024-02-26T08:12:00;5.10;99.90
46732;DHT22;32477;51.474;5.696;2024-02-26T08:14:25;5.20;99.90
46732;DHT22;32477;51.474;5.696;2024-02-26T08:16:51;5.20;99.90
46732;DHT22;32477;51.474;5.696;2024-02-26T08:19:17;5.20;99.90
46732;DHT22;32477;51.474;5.696;2024-02-26T08:21:43;5.20;99.90
46732;DHT22;32477;51.474;5.696;2024-02-26T08:24:08;5.30;99.90
46732;DHT22;32477;51.474;5.696;2024-02-26T08:26:34;5.20;99.90
46732;DHT22;32477;51.474;5.696;2024-02-26T08:28:59;5.20;99.90
46732;DHT22;32477;51.474;5.696;2024-02-26T08:31:25;5.20;99.90
46732;DHT22;32477;51.474;5.696;2024-02-26T08:33:51;5.20;99.90
46732;DHT22;32477;51.474;5.696;2024-02-26T08:36:16;5.20;99.90
46732;DHT22;32477;51.474;5.696;2024-02-26T08:38:42;5.20;99.90
46732;DHT22;32477;51.474;5.696;2024-02-26T08:41:07;5.20;99.90
46732;DHT22;32477;51.474;5.696;2024-02-26T08:43:33;5.20;99.90
46732;DHT22;32477;51.474;5.696;2024-02-26T08:45:58;5.20;99.90
46732;DHT22;32477;51.474;5.696;2024-02-26T08:48:24;5.20;99.90
46732;DHT22;32477;51.474;5.696;2024-02-26T08:50:50;5.20;99.90
46732;DHT22;32477;51.474;5.696;2024-02-26T08:53:15;5.20;99.90
46732;DHT22;32477;51.474;5.696;2024-02-26T08:55:41;5.20;99.90
46732;DHT22;32477;51.474;5.696;2024-02-26T08:58:06;5.20;99.90
46732;DHT22;32477;51.474;5.696;2024-02-26T09:00:32;5.20;99.90
46732;DHT22;32477;51.474;5.696;2024-02-26T09:02:57;5.20;99.90
46732;DHT22;32477;51.474;5.696;2024-02-26T09:05:23;5.20;99.90
46732;DHT22;32477;51.474;5.696;2024-02-26T09:07:49;5.20;99.90
46732;DHT22;32477;51.474;5.696;2024-02-26T09:10:14;5.20;99.90
46732;DHT22;32477;51.474;5.696;2024-02-26T09:12:40;5.20;99.90
46732;DHT22;32477;51.474;5.696;2024-02-26T09:15:07;5.20;99.90
46732;DHT22;32477;51.474;5.696;2024-02-26T09:17:33;5.20;99.90
46732;DHT22;32477;51.474;5.696;2024-02-26T09:19:58;5.10;99.90
46732;DHT22;32477;51.474;5.696;2024-02-26T09:22:24;5.20;99.90
46732;DHT22;32477;51.474;5.696;2024-02-26T09:24:49;5.10;99.90
46732;DHT22;32477;51.474;5.696;2024-02-26T09:27:16;5.10;99.90
46732;DHT22;32477;51.474;5.696;2024-02-26T09:29:42;5.20;99.90
46732;DHT22;32477;51.474;5.696;2024-02-26T09:32:08;5.20;99.90
46732;DHT22;32477;51.474;5.696;2024-02-26T09:34:34;5.20;99.90
46732;DHT22;32477;51.474;5.696;2024-02-26T09:36:59;5.20;99.90
46732;DHT22;32477;51.474;5.696;2024-02-26T09:39:26;5.20;99.90
46732;DHT22;32477;51.474;5.696;2024-02-26T09:41:53;5.20;99.90
46732;DHT22;32477;51.474;5.696;2024-02-26T09:44:19;5.20;99.90
46732;DHT22;32477;51.474;5.696;2024-02-26T09:46:48;5.20;99.90
46732;DHT22;32477;51.474;5.696;2024-02-26T09:49:18;5.20;99.90
46732;DHT22;32477;51.474;5.696;2024-02-26T09:51:43;5.20;99.90
46732;DHT22;32477;51.474;5.696;2024-02-26T09:54:09;5.20;99.90
46732;DHT22;32477;51.474;5.696;2024-02-26T09:56:38;5.30;99.90
46732;DHT22;32477;51.474;5.696;2024-02-26T09:59:07;5.30;99.90
46732;DHT22;32477;51.474;5.696;2024-02-26T10:01:36;5.30;99.90
46732;DHT22;32477;51.474;5.696;2024-02-26T10:04:05;5.30;99.90
46732;DHT22;32477;51.474;5.696;2024-02-26T10:06:31;5.30;99.90
46732;DHT22;32477;51.474;5.696;2024-02-26T10:08:57;5.30;99.90
46732;DHT22;32477;51.474;5.696;2024-02-26T10:11:24;5.40;99.90
46732;DHT22;32477;51.474;5.696;2024-02-26T10:13:50;5.30;99.90
46732;DHT22;32477;51.474;5.696;2024-02-26T10:16:16;5.30;99.90
46732;DHT22;32477;51.474;5.696;2024-02-26T10:18:48;5.40;99.90
46732;DHT22;32477;51.474;5.696;2024-02-26T10:21:16;5.40;99.90
46732;DHT22;32477;51.474;5.696;2024-02-26T10:23:43;5.40;99.90
46732;DHT22;32477;51.474;5.696;2024-02-26T10:26:11;5.40;99.90
46732;DHT22;32477;51.474;5.696;2024-02-26T10:28:39;5.40;99.90
46732;DHT22;32477;51.474;5.696;2024-02-26T10:31:04;5.40;99.90
46732;DHT22;32477;51.474;5.696;2024-02-26T10:33:36;5.40;99.90
46732;DHT22;32477;51.474;5.696;2024-02-26T10:36:06;5.40;99.90
46732;DHT22;32477;51.474;5.696;2024-02-26T10:38:33;5.40;99.90
46732;DHT22;32477;51.474;5.696;2024-02-26T10:40:59;5.40;99.90
46732;DHT22;32477;51.474;5.696;2024-02-26T10:43:28;5.40;99.90
46732;DHT22;32477;51.474;5.696;2024-02-26T10:45:57;5.40;99.90
46732;DHT22;32477;51.474;5.696;2024-02-26T10:48:23;5.40;99.90
46732;DHT22;32477;51.474;5.696;2024-02-26T10:50:48;5.40;99.90
46732;DHT22;32477;51.474;5.696;2024-02-26T10:53:17;5.40;99.90
46732;DHT22;32477;51.474;5.696;2024-02-26T10:55:47;5.40;99.90
46732;DHT22;32477;51.474;5.696;2024-02-26T10:58:13;5.40;99.90
46732;DHT22;32477;51.474;5.696;2024-02-26T11:00:40;5.40;99.90
46732;DHT22;32477;51.474;5.696;2024-02-26T11:03:06;5.50;99.90
46732;DHT22;32477;51.474;5.696;2024-02-26T11:05:35;5.50;99.90
46732;DHT22;32477;51.474;5.696;2024-02-26T11:08:03;5.50;99.90
46732;DHT22;32477;51.474;5.696;2024-02-26T11:10:29;5.50;99.90
46732;DHT22;32477;51.474;5.696;2024-02-26T11:12:57;5.50;99.90
46732;DHT22;32477;51.474;5.696;2024-02-26T11:15:25;5.50;99.90
46732;DHT22;32477;51.474;5.696;2024-02-26T11:17:52;5.50;99.90
46732;DHT22;32477;51.474;5.696;2024-02-26T11:20:19;5.50;99.90
46732;DHT22;32477;51.474;5.696;2024-02-26T11:22:45;5.50;99.90
46732;DHT22;32477;51.474;5.696;2024-02-26T11:25:11;5.50;99.90
46732;DHT22;32477;51.474;5.696;2024-02-26T11:27:47;5.50;99.90
46732;DHT22;32477;51.474;5.696;2024-02-26T11:30:15;5.50;99.90
46732;DHT22;32477;51.474;5.696;2024-02-26T11:32:46;5.50;99.90
46732;DHT22;32477;51.474;5.696;2024-02-26T11:35:13;5.50;99.90
46732;DHT22;32477;51.474;5.696;2024-02-26T11:37:41;5.50;99.90
46732;DHT22;32477;51.474;5.696;2024-02-26T11:40:17;5.50;99.90
46732;DHT22;32477;51.474;5.696;2024-02-26T11:42:44;5.60;99.90
46732;DHT22;32477;51.474;5.696;2024-02-26T11:48:29;5.60;99.90
46732;DHT22;32477;51.474;5.696;2024-02-26T11:50:55;5.60;99.90
46732;DHT22;32477;51.474;5.696;2024-02-26T11:53:29;5.60;99.90
46732;DHT22;32477;51.474;5.696;2024-02-26T11:59:37;5.60;99.90
46732;DHT22;32477;51.474;5.696;2024-02-26T12:02:03;5.60;99.90
46732;DHT22;32477;51.474;5.696;2024-02-26T12:04:30;5.60;99.90
46732;DHT22;32477;51.474;5.696;2024-02-26T12:06:57;5.60;99.90
46732;DHT22;32477;51.474;5.696;2024-02-26T12:11:57;5.60;99.90
46732;DHT22;32477;51.474;5.696;2024-02-26T12:14:26;5.60;99.90
46732;DHT22;32477;51.474;5.696;2024-02-26T12:16:52;5.70;99.90
46732;DHT22;32477;51.474;5.696;2024-02-26T12:19:18;5.70;99.90
46732;DHT22;32477;51.474;5.696;2024-02-26T12:21:44;5.60;99.90
46732;DHT22;32477;51.474;5.696;2024-02-26T12:24:18;5.70;99.90
46732;DHT22;32477;51.474;5.696;2024-02-26T12:26:44;5.70;99.90
46732;DHT22;32477;51.474;5.696;2024-02-26T12:29:10;5.70;99.90
46732;DHT22;32477;51.474;5.696;2024-02-26T12:31:36;5.70;99.90
46732;DHT22;32477;51.474;5.696;2024-02-26T12:34:03;5.70;99.90
46732;DHT22;32477;51.474;5.696;2024-02-26T12:36:29;5.70;99.90
46732;DHT22;32477;51.474;5.696;2024-02-26T12:38:55;5.70;99.90
46732;DHT22;32477;51.474;5.696;2024-02-26T12:41:22;5.70;99.90
46732;DHT22;32477;51.474;5.696;2024-02-26T12:43:47;5.70;99.90
46732;DHT22;32477;51.474;5.696;2024-02-26T12:46:13;5.70;99.90
46732;DHT22;32477;51.474;5.696;2024-02-26T12:48:43;5.70;99.90
46732;DHT22;32477;51.474;5.696;2024-02-26T12:51:09;5.70;99.90
46732;DHT22;32477;51.474;5.696;2024-02-26T12:53:35;5.70;99.90
46732;DHT22;32477;51.474;5.696;2024-02-26T12:56:02;5.80;99.90
46732;DHT22;32477;51.474;5.696;2024-02-26T12:58:29;5.80;99.90
46732;DHT22;32477;51.474;5.696;2024-02-26T13:00:55;5.80;99.90
46732;DHT22;32477;51.474;5.696;2024-02-26T13:03:22;5.80;99.90
46732;DHT22;32477;51.474;5.696;2024-02-26T13:05:49;5.80;99.90
46732;DHT22;32477;51.474;5.696;2024-02-26T13:08:19;5.80;99.90
46732;DHT22;32477;51.474;5.696;2024-02-26T13:10:48;5.80;99.90
46732;DHT22;32477;51.474;5.696;2024-02-26T13:13:17;5.80;99.90
46732;DHT22;32477;51.474;5.696;2024-02-26T13:15:44;5.80;99.90
46732;DHT22;32477;51.474;5.696;2024-02-26T13:18:10;5.80;99.90
46732;DHT22;32477;51.474;5.696;2024-02-26T13:20:36;5.80;99.90
46732;DHT22;32477;51.474;5.696;2024-02-26T13:23:07;5.90;99.90
46732;DHT22;32477;51.474;5.696;2024-02-26T13:25:33;5.80;99.90
46732;DHT22;32477;51.474;5.696;2024-02-26T13:30:32;5.80;99.90
46732;DHT22;32477;51.474;5.696;2024-02-26T13:33:10;5.80;99.90
46732;DHT22;32477;51.474;5.696;2024-02-26T13:35:36;5.80;99.90
46732;DHT22;32477;51.474;5.696;2024-02-26T13:38:02;5.80;99.90
46732;DHT22;32477;51.474;5.696;2024-02-26T13:40:28;5.80;99.90
46732;DHT22;32477;51.474;5.696;2024-02-26T13:42:54;5.80;99.90
46732;DHT22;32477;51.474;5.696;2024-02-26T13:45:20;5.80;99.90
46732;DHT22;32477;51.474;5.696;2024-02-26T13:47:45;5.70;99.90
46732;DHT22;32477;51.474;5.696;2024-02-26T13:50:11;5.70;99.90
46732;DHT22;32477;51.474;5.696;2024-02-26T13:52:37;5.70;99.90
46732;DHT22;32477;51.474;5.696;2024-02-26T13:55:03;5.70;99.90
46732;DHT22;32477;51.474;5.696;2024-02-26T13:57:28;5.70;99.90
46732;DHT22;32477;51.474;5.696;2024-02-26T13:59:54;5.70;99.90
46732;DHT22;32477;51.474;5.696;2024-02-26T14:02:20;5.70;99.90
46732;DHT22;32477;51.474;5.696;2024-02-26T14:04:46;5.70;99.90
46732;DHT22;32477;51.474;5.696;2024-02-26T14:07:12;5.70;99.90
46732;DHT22;32477;51.474;5.696;2024-02-26T14:09:38;5.70;99.90
46732;DHT22;32477;51.474;5.696;2024-02-26T14:12:04;5.70;99.90
46732;DHT22;32477;51.474;5.696;2024-02-26T14:14:30;5.70;99.90
46732;DHT22;32477;51.474;5.696;2024-02-26T14:16:58;5.70;99.90
46732;DHT22;32477;51.474;5.696;2024-02-26T14:19:24;5.70;99.90
46732;DHT22;32477;51.474;5.696;2024-02-26T14:21:50;5.70;99.90
46732;DHT22;32477;51.474;5.696;2024-02-26T14:24:15;5.80;99.90
46732;DHT22;32477;51.474;5.696;2024-02-26T14:26:41;5.80;99.90
46732;DHT22;32477;51.474;5.696;2024-02-26T14:29:06;5.80;99.90
46732;DHT22;32477;51.474;5.696;2024-02-26T14:31:32;5.80;99.90
46732;DHT22;32477;51.474;5.696;2024-02-26T14:33:58;5.80;99.90
46732;DHT22;32477;51.474;5.696;2024-02-26T14:36:24;5.80;99.90
46732;DHT22;32477;51.474;5.696;2024-02-26T14:38:50;5.80;99.90
46732;DHT22;32477;51.474;5.696;2024-02-26T14:41:16;5.80;99.90
46732;DHT22;32477;51.474;5.696;2024-02-26T14:43:41;5.80;99.90
46732;DHT22;32477;51.474;5.696;2024-02-26T14:46:07;5.80;99.90
46732;DHT22;32477;51.474;5.696;2024-02-26T14:48:33;5.80;99.90
46732;DHT22;32477;51.474;5.696;2024-02-26T14:50:59;5.80;99.90
46732;DHT22;32477;51.474;5.696;2024-02-26T14:53:26;5.90;99.90
46732;DHT22;32477;51.474;5.696;2024-02-26T14:55:52;5.90;99.90
46732;DHT22;32477;51.474;5.696;2024-02-26T14:58:17;5.90;99.90
46732;DHT22;32477;51.474;5.696;2024-02-26T15:00:43;5.90;99.90
46732;DHT22;32477;51.474;5.696;2024-02-26T15:03:09;5.90;99.90
46732;DHT22;32477;51.474;5.696;2024-02-26T15:05:34;5.90;99.90
46732;DHT22;32477;51.474;5.696;2024-02-26T15:08:00;5.90;99.90
46732;DHT22;32477;51.474;5.696;2024-02-26T15:10:26;5.90;99.90
46732;DHT22;32477;51.474;5.696;2024-02-26T15:12:52;5.90;99.90
46732;DHT22;32477;51.474;5.696;2024-02-26T15:15:22;5.90;99.90
46732;DHT22;32477;51.474;5.696;2024-02-26T15:17:48;5.90;99.90
46732;DHT22;32477;51.474;5.696;2024-02-26T15:20:18;5.90;99.90
46732;DHT22;32477;51.474;5.696;2024-02-26T15:22:43;5.90;99.90
46732;DHT22;32477;51.474;5.696;2024-02-26T15:25:09;6.00;99.90
46732;DHT22;32477;51.474;5.696;2024-02-26T15:27:35;5.90;99.90
46732;DHT22;32477;51.474;5.696;2024-02-26T15:30:04;6.00;99.90
46732;DHT22;32477;51.474;5.696;2024-02-26T15:32:30;6.00;99.90
46732;DHT22;32477;51.474;5.696;2024-02-26T15:34:56;5.90;99.90
46732;DHT22;32477;51.474;5.696;2024-02-26T15:37:23;5.90;99.90
46732;DHT22;32477;51.474;5.696;2024-02-26T15:39:49;5.90;99.90
46732;DHT22;32477;51.474;5.696;2024-02-26T15:42:14;6.00;99.90
46732;DHT22;32477;51.474;5.696;2024-02-26T15:44:41;6.00;99.90
46732;DHT22;32477;51.474;5.696;2024-02-26T15:47:06;6.00;99.90
46732;DHT22;32477;51.474;5.696;2024-02-26T15:49:33;5.90;99.90